ABW449 UUEE-UNKL
Flight info
| Callsign | ABW449 |
|---|---|
| Flight time | 4h 4m |
| Altitude | 39000 |
| Route | OLMUN3H OLMUN T629 IPSIL T830 LAMGU N604 PIGUR T580 LITUN N869 KELOK B115 RANET RANET2Z |
| Aircraft | B748/H-SDE3FGHIM1M2RWXY/LB1 |
Departure
| Time | 2026-05-04 14:02 |
|---|---|
| Airport | Sheremetyevo International Airport (UUEE) |
Arrival
| Time | 2026-05-04 18:06 |
|---|---|
| Airport | Krasnoyarsk International Airport (UNKL) |
| Time | Latitude | Longitude | Altitude | Speed | Heading |
|---|---|---|---|---|---|
| 2026-05-04 13:26 | 55.98217 | 37.43064 | 649 ft | 0 kts | 345° |
| 2026-05-04 13:49 | 55.98213 | 37.43065 | 649 ft | 2 kts | 345° |
| 2026-05-04 13:50 | 55.98198 | 37.43073 | 653 ft | 2 kts | 345° |
| 2026-05-04 13:50 | 55.98182 | 37.43081 | 653 ft | 2 kts | 344° |
| 2026-05-04 13:50 | 55.98167 | 37.43089 | 653 ft | 2 kts | 345° |
| 2026-05-04 13:50 | 55.98152 | 37.43100 | 653 ft | 2 kts | 308° |
| 2026-05-04 13:51 | 55.98143 | 37.43124 | 653 ft | 2 kts | 294° |
| 2026-05-04 13:51 | 55.98137 | 37.43152 | 653 ft | 2 kts | 282° |
| 2026-05-04 13:51 | 55.98134 | 37.43178 | 654 ft | 2 kts | 263° |
| 2026-05-04 13:51 | 55.98135 | 37.43187 | 654 ft | 0 kts | 257° |
| 2026-05-04 13:54 | 55.98131 | 37.43160 | 652 ft | 6 kts | 256° |
| 2026-05-04 13:54 | 55.98126 | 37.43127 | 650 ft | 0 kts | 256° |
| 2026-05-04 13:55 | 55.98124 | 37.43115 | 651 ft | 4 kts | 255° |
| 2026-05-04 13:55 | 55.98082 | 37.42831 | 652 ft | 16 kts | 255° |
| 2026-05-04 13:55 | 55.98031 | 37.42680 | 653 ft | 12 kts | 204° |
| 2026-05-04 13:56 | 55.97930 | 37.42702 | 650 ft | 19 kts | 165° |
| 2026-05-04 13:56 | 55.97807 | 37.42770 | 653 ft | 8 kts | 144° |
| 2026-05-04 13:56 | 55.97806 | 37.42996 | 653 ft | 16 kts | 75° |
| 2026-05-04 13:57 | 55.97836 | 37.43196 | 652 ft | 17 kts | 75° |
| 2026-05-04 13:57 | 55.97869 | 37.43413 | 652 ft | 19 kts | 75° |
| 2026-05-04 13:58 | 55.97932 | 37.44008 | 653 ft | 7 kts | 127° |
| 2026-05-04 13:58 | 55.97910 | 37.44034 | 653 ft | 0 kts | 160° |
| 2026-05-04 13:59 | 55.97909 | 37.44035 | 653 ft | 1 kts | 160° |
| 2026-05-04 13:59 | 55.97810 | 37.44073 | 654 ft | 9 kts | 192° |
| 2026-05-04 14:00 | 55.97778 | 37.44008 | 652 ft | 4 kts | 258° |
| 2026-05-04 14:00 | 55.97775 | 37.43986 | 655 ft | 0 kts | 255° |
| 2026-05-04 14:01 | 55.97767 | 37.43934 | 653 ft | 24 kts | 255° |
| 2026-05-04 14:01 | 55.97362 | 37.41212 | 675 ft | 183 kts | 255° |
| 2026-05-04 14:02 | 55.97037 | 37.38995 | 1640 ft | 176 kts | 255° |
| 2026-05-04 14:02 | 55.96716 | 37.36912 | 2644 ft | 181 kts | 256° |
| 2026-05-04 14:02 | 55.96379 | 37.34680 | 3393 ft | 193 kts | 255° |
| 2026-05-04 14:02 | 55.96004 | 37.32295 | 4132 ft | 209 kts | 254° |
| 2026-05-04 14:03 | 55.95585 | 37.29738 | 4873 ft | 221 kts | 254° |
| 2026-05-04 14:03 | 55.95137 | 37.27044 | 5606 ft | 238 kts | 255° |
| 2026-05-04 14:03 | 55.94682 | 37.24102 | 6593 ft | 250 kts | 256° |
| 2026-05-04 14:03 | 55.94220 | 37.21085 | 7662 ft | 258 kts | 256° |
| 2026-05-04 14:04 | 55.93216 | 37.14761 | 9701 ft | 275 kts | 256° |
| 2026-05-04 14:04 | 55.92672 | 37.11312 | 10129 ft | 301 kts | 256° |
| 2026-05-04 14:04 | 55.92107 | 37.07637 | 10919 ft | 316 kts | 260° |
| 2026-05-04 14:05 | 55.92794 | 36.99876 | 12898 ft | 331 kts | 298° |
| 2026-05-04 14:05 | 55.94266 | 36.96681 | 13937 ft | 341 kts | 318° |
| 2026-05-04 14:05 | 55.96256 | 36.94279 | 14865 ft | 350 kts | 332° |
| 2026-05-04 14:06 | 55.98405 | 36.93130 | 15725 ft | 361 kts | 349° |
| 2026-05-04 14:06 | 56.00969 | 36.93255 | 16684 ft | 374 kts | 8° |
| 2026-05-04 14:06 | 56.03463 | 36.94869 | 17648 ft | 386 kts | 26° |
| 2026-05-04 14:06 | 56.05746 | 36.97431 | 18535 ft | 394 kts | 32° |
| 2026-05-04 14:07 | 56.08013 | 37.00318 | 19360 ft | 400 kts | 32° |
| 2026-05-04 14:07 | 56.10204 | 37.03394 | 20179 ft | 408 kts | 43° |
| 2026-05-04 14:07 | 56.11952 | 37.07485 | 21011 ft | 418 kts | 59° |
| 2026-05-04 14:07 | 56.12995 | 37.11987 | 21754 ft | 425 kts | 72° |
| 2026-05-04 14:08 | 56.13745 | 37.17206 | 22523 ft | 431 kts | 78° |
| 2026-05-04 14:08 | 56.13998 | 37.22516 | 23281 ft | 436 kts | 93° |
| 2026-05-04 14:08 | 56.13488 | 37.27923 | 23933 ft | 439 kts | 108° |
| 2026-05-04 14:08 | 56.12259 | 37.32889 | 24565 ft | 440 kts | 123° |
| 2026-05-04 14:09 | 56.07952 | 37.40570 | 25786 ft | 440 kts | 152° |
| 2026-05-04 14:09 | 56.05234 | 37.43014 | 26353 ft | 441 kts | 158° |
| 2026-05-04 14:10 | 55.99582 | 37.47622 | 27479 ft | 450 kts | 150° |
| 2026-05-04 14:10 | 55.97081 | 37.50980 | 28026 ft | 457 kts | 137° |
| 2026-05-04 14:10 | 55.95003 | 37.55275 | 28557 ft | 462 kts | 124° |
| 2026-05-04 14:10 | 55.93468 | 37.60353 | 29114 ft | 466 kts | 111° |
| 2026-05-04 14:11 | 55.92619 | 37.65535 | 29629 ft | 468 kts | 101° |
| 2026-05-04 14:11 | 55.90846 | 37.76704 | 30575 ft | 476 kts | 116° |
| 2026-05-04 14:11 | 55.89262 | 37.81969 | 31013 ft | 479 kts | 118° |
| 2026-05-04 14:12 | 55.87623 | 37.87157 | 31417 ft | 483 kts | 118° |
| 2026-05-04 14:12 | 55.85973 | 37.92351 | 31825 ft | 486 kts | 118° |
| 2026-05-04 14:12 | 55.82763 | 38.02659 | 32571 ft | 492 kts | 118° |
| 2026-05-04 14:13 | 55.81156 | 38.08112 | 32942 ft | 493 kts | 111° |
| 2026-05-04 14:13 | 55.80147 | 38.13815 | 33312 ft | 492 kts | 99° |
| 2026-05-04 14:13 | 55.79778 | 38.19844 | 33829 ft | 486 kts | 87° |
| 2026-05-04 14:13 | 55.79862 | 38.25800 | 34277 ft | 484 kts | 85° |
| 2026-05-04 14:14 | 55.79990 | 38.31745 | 34708 ft | 484 kts | 85° |
| 2026-05-04 14:14 | 55.80702 | 38.43587 | 35493 ft | 478 kts | 71° |
| 2026-05-04 14:14 | 55.81679 | 38.49206 | 35844 ft | 478 kts | 69° |
| 2026-05-04 14:15 | 55.83715 | 38.60452 | 36540 ft | 480 kts | 70° |
| 2026-05-04 14:15 | 55.85785 | 38.71787 | 36867 ft | 478 kts | 64° |
| 2026-05-04 14:16 | 55.90029 | 38.87769 | 36857 ft | 475 kts | 62° |
| 2026-05-04 14:17 | 55.93182 | 38.97964 | 36881 ft | 468 kts | 47° |
| 2026-05-04 14:17 | 55.95367 | 39.02262 | 36876 ft | 465 kts | 41° |
| 2026-05-04 14:18 | 56.02534 | 39.13859 | 36871 ft | 464 kts | 38° |
| 2026-05-04 14:19 | 56.12305 | 39.28852 | 36866 ft | 464 kts | 37° |
| 2026-05-04 14:19 | 56.17220 | 39.36402 | 36863 ft | 464 kts | 37° |
| 2026-05-04 14:20 | 56.21301 | 39.42687 | 36863 ft | 464 kts | 37° |
| 2026-05-04 14:20 | 56.27255 | 39.50854 | 36863 ft | 461 kts | 30° |
| 2026-05-04 14:21 | 56.35443 | 39.59938 | 36854 ft | 461 kts | 28° |
| 2026-05-04 14:21 | 56.40938 | 39.65885 | 36856 ft | 460 kts | 27° |
| 2026-05-04 14:22 | 56.45499 | 39.70829 | 36854 ft | 460 kts | 28° |
| 2026-05-04 14:22 | 56.51015 | 39.76825 | 36856 ft | 460 kts | 28° |
| 2026-05-04 14:23 | 56.56387 | 39.86224 | 36860 ft | 472 kts | 54° |
| 2026-05-04 14:23 | 56.57484 | 39.89738 | 36859 ft | 476 kts | 62° |
| 2026-05-04 14:24 | 56.59468 | 40.01194 | 36841 ft | 481 kts | 72° |
| 2026-05-04 14:24 | 56.61111 | 40.12969 | 36841 ft | 480 kts | 73° |
| 2026-05-04 14:25 | 56.62761 | 40.24755 | 36841 ft | 480 kts | 73° |
| 2026-05-04 14:25 | 56.65198 | 40.42409 | 36828 ft | 480 kts | 73° |
| 2026-05-04 14:26 | 56.66804 | 40.54127 | 36845 ft | 481 kts | 73° |
| 2026-05-04 14:26 | 56.68410 | 40.65953 | 36835 ft | 482 kts | 73° |
| 2026-05-04 14:27 | 56.70002 | 40.77768 | 36838 ft | 482 kts | 73° |
| 2026-05-04 14:27 | 56.71588 | 40.89628 | 36838 ft | 482 kts | 73° |
| 2026-05-04 14:28 | 56.73153 | 41.01424 | 36835 ft | 482 kts | 73° |
| 2026-05-04 14:28 | 56.74718 | 41.13318 | 36835 ft | 482 kts | 73° |
| 2026-05-04 14:29 | 56.77812 | 41.37118 | 36834 ft | 483 kts | 73° |
| 2026-05-04 14:30 | 56.79343 | 41.49039 | 36838 ft | 483 kts | 73° |
| 2026-05-04 14:31 | 56.81618 | 41.66943 | 36840 ft | 483 kts | 73° |
| 2026-05-04 14:32 | 56.84606 | 41.90801 | 36836 ft | 485 kts | 73° |
| 2026-05-04 14:32 | 56.86094 | 42.02835 | 36837 ft | 485 kts | 73° |
| 2026-05-04 14:33 | 56.87572 | 42.14889 | 36838 ft | 485 kts | 74° |
| 2026-05-04 14:33 | 56.89035 | 42.26923 | 36834 ft | 485 kts | 74° |
| 2026-05-04 14:34 | 56.90477 | 42.38898 | 36836 ft | 485 kts | 74° |
| 2026-05-04 14:34 | 56.91919 | 42.50967 | 36838 ft | 485 kts | 74° |
| 2026-05-04 14:35 | 56.93348 | 42.63047 | 36833 ft | 486 kts | 74° |
| 2026-05-04 14:35 | 56.94764 | 42.75112 | 36834 ft | 486 kts | 74° |
| 2026-05-04 14:36 | 56.96175 | 42.87243 | 36838 ft | 486 kts | 75° |
| 2026-05-04 14:36 | 56.97575 | 42.99397 | 36839 ft | 486 kts | 75° |
| 2026-05-04 14:37 | 56.98955 | 43.11491 | 36836 ft | 486 kts | 75° |
| 2026-05-04 14:37 | 57.00325 | 43.23603 | 36836 ft | 486 kts | 75° |
| 2026-05-04 14:38 | 57.01687 | 43.35749 | 36838 ft | 486 kts | 75° |
| 2026-05-04 14:38 | 57.03036 | 43.47905 | 36838 ft | 486 kts | 75° |
| 2026-05-04 14:39 | 57.04373 | 43.60066 | 36832 ft | 485 kts | 75° |
| 2026-05-04 14:39 | 57.05689 | 43.72146 | 36833 ft | 485 kts | 75° |
| 2026-05-04 14:40 | 57.07656 | 43.90422 | 36841 ft | 485 kts | 75° |
| 2026-05-04 14:40 | 57.08955 | 44.02643 | 36841 ft | 487 kts | 75° |
| 2026-05-04 14:41 | 57.10234 | 44.14796 | 36840 ft | 487 kts | 76° |
| 2026-05-04 14:42 | 57.12773 | 44.39276 | 36838 ft | 486 kts | 76° |
| 2026-05-04 14:42 | 57.14016 | 44.51450 | 36838 ft | 486 kts | 76° |
| 2026-05-04 14:43 | 57.15262 | 44.63772 | 36830 ft | 487 kts | 76° |
| 2026-05-04 14:43 | 57.16488 | 44.76023 | 36827 ft | 487 kts | 76° |
| 2026-05-04 14:44 | 57.17700 | 44.88268 | 36831 ft | 487 kts | 76° |
| 2026-05-04 14:44 | 57.18905 | 45.00564 | 36829 ft | 487 kts | 76° |
| 2026-05-04 14:45 | 57.20094 | 45.12827 | 36828 ft | 487 kts | 76° |
| 2026-05-04 14:45 | 57.21277 | 45.25170 | 36828 ft | 487 kts | 76° |
| 2026-05-04 14:46 | 57.22447 | 45.37501 | 36832 ft | 489 kts | 77° |
| 2026-05-04 14:46 | 57.23604 | 45.49836 | 36840 ft | 489 kts | 77° |
| 2026-05-04 14:47 | 57.24756 | 45.62250 | 36840 ft | 489 kts | 77° |
| 2026-05-04 14:47 | 57.25885 | 45.74564 | 36839 ft | 489 kts | 77° |
| 2026-05-04 14:48 | 57.27010 | 45.86959 | 36834 ft | 489 kts | 77° |
| 2026-05-04 14:48 | 57.28121 | 45.99358 | 36835 ft | 490 kts | 77° |
| 2026-05-04 14:49 | 57.29220 | 46.11754 | 36837 ft | 490 kts | 77° |
| 2026-05-04 14:49 | 57.30309 | 46.24196 | 36837 ft | 490 kts | 77° |
| 2026-05-04 14:50 | 57.31371 | 46.36469 | 36839 ft | 489 kts | 78° |
| 2026-05-04 14:50 | 57.32428 | 46.48821 | 36838 ft | 489 kts | 78° |
| 2026-05-04 14:51 | 57.33479 | 46.61264 | 36835 ft | 489 kts | 78° |
| 2026-05-04 14:51 | 57.34534 | 46.73776 | 36817 ft | 489 kts | 76° |
| 2026-05-04 14:52 | 57.35464 | 46.79778 | 36830 ft | 488 kts | 64° |
| 2026-05-04 14:52 | 57.36832 | 46.85505 | 36823 ft | 483 kts | 62° |
| 2026-05-04 14:52 | 57.39603 | 46.96834 | 36823 ft | 482 kts | 62° |
| 2026-05-04 14:53 | 57.42328 | 47.08109 | 36824 ft | 482 kts | 62° |
| 2026-05-04 14:53 | 57.45073 | 47.19490 | 36820 ft | 482 kts | 62° |
| 2026-05-04 14:54 | 57.47793 | 47.30838 | 36830 ft | 483 kts | 63° |
| 2026-05-04 14:54 | 57.50526 | 47.42295 | 36830 ft | 484 kts | 63° |
| 2026-05-04 14:55 | 57.53234 | 47.53665 | 36833 ft | 484 kts | 63° |
| 2026-05-04 14:55 | 57.55954 | 47.65166 | 36828 ft | 484 kts | 63° |
| 2026-05-04 14:56 | 57.58659 | 47.76651 | 36825 ft | 485 kts | 63° |
| 2026-05-04 14:56 | 57.61357 | 47.88173 | 36823 ft | 486 kts | 63° |
| 2026-05-04 14:57 | 57.64051 | 47.99743 | 36824 ft | 486 kts | 63° |
| 2026-05-04 14:57 | 57.66727 | 48.11295 | 36824 ft | 486 kts | 63° |
| 2026-05-04 14:58 | 57.69396 | 48.22881 | 36822 ft | 486 kts | 63° |
| 2026-05-04 14:58 | 57.72058 | 48.34497 | 36845 ft | 486 kts | 64° |
| 2026-05-04 14:59 | 57.74703 | 48.46102 | 36819 ft | 487 kts | 64° |
| 2026-05-04 15:00 | 57.78682 | 48.63650 | 36823 ft | 488 kts | 64° |
| 2026-05-04 15:00 | 57.81313 | 48.75336 | 36820 ft | 488 kts | 64° |
| 2026-05-04 15:01 | 57.85244 | 48.92909 | 36816 ft | 488 kts | 65° |
| 2026-05-04 15:01 | 57.87871 | 49.04742 | 36818 ft | 489 kts | 65° |
| 2026-05-04 15:02 | 57.90462 | 49.16473 | 36820 ft | 489 kts | 65° |
| 2026-05-04 15:02 | 57.93073 | 49.28361 | 36821 ft | 490 kts | 65° |
| 2026-05-04 15:03 | 57.95653 | 49.40179 | 36820 ft | 490 kts | 65° |
| 2026-05-04 15:03 | 57.98222 | 49.52013 | 36818 ft | 489 kts | 65° |
| 2026-05-04 15:04 | 58.00799 | 49.63948 | 36820 ft | 489 kts | 65° |
| 2026-05-04 15:04 | 58.03350 | 49.75835 | 36820 ft | 489 kts | 65° |
| 2026-05-04 15:05 | 58.05888 | 49.87728 | 36822 ft | 489 kts | 65° |
| 2026-05-04 15:05 | 58.08417 | 49.99650 | 36824 ft | 489 kts | 65° |
| 2026-05-04 15:06 | 58.10933 | 50.11578 | 36818 ft | 490 kts | 66° |
| 2026-05-04 15:07 | 58.14702 | 50.29581 | 36821 ft | 491 kts | 66° |
| 2026-05-04 15:07 | 58.17202 | 50.41590 | 36817 ft | 491 kts | 66° |
| 2026-05-04 15:08 | 58.19700 | 50.53622 | 36821 ft | 491 kts | 66° |
| 2026-05-04 15:08 | 58.22196 | 50.65746 | 36813 ft | 492 kts | 66° |
| 2026-05-04 15:09 | 58.24671 | 50.77822 | 36809 ft | 492 kts | 66° |
| 2026-05-04 15:09 | 58.27138 | 50.89941 | 36809 ft | 493 kts | 66° |
| 2026-05-04 15:10 | 58.30821 | 51.08168 | 36806 ft | 493 kts | 67° |
| 2026-05-04 15:11 | 58.34469 | 51.26384 | 36809 ft | 493 kts | 67° |
| 2026-05-04 15:11 | 58.36896 | 51.38595 | 36810 ft | 493 kts | 67° |
| 2026-05-04 15:12 | 58.39307 | 51.50789 | 36808 ft | 493 kts | 67° |
| 2026-05-04 15:12 | 58.41717 | 51.63055 | 36807 ft | 493 kts | 67° |
| 2026-05-04 15:13 | 58.44286 | 51.75127 | 36804 ft | 493 kts | 66° |
| 2026-05-04 15:13 | 58.46830 | 51.87315 | 36813 ft | 493 kts | 66° |
| 2026-05-04 15:14 | 58.49406 | 51.99489 | 36808 ft | 494 kts | 66° |
| 2026-05-04 15:14 | 58.51934 | 52.11675 | 36809 ft | 494 kts | 66° |
| 2026-05-04 15:15 | 58.54465 | 52.23831 | 36808 ft | 494 kts | 66° |
| 2026-05-04 15:15 | 58.56987 | 52.36088 | 36823 ft | 494 kts | 66° |
| 2026-05-04 15:16 | 58.60749 | 52.54458 | 36809 ft | 495 kts | 67° |
| 2026-05-04 15:17 | 58.64495 | 52.72929 | 36807 ft | 495 kts | 67° |
| 2026-05-04 15:17 | 58.68223 | 52.91426 | 36804 ft | 495 kts | 67° |
| 2026-05-04 15:18 | 58.70694 | 53.03784 | 36795 ft | 496 kts | 67° |
| 2026-05-04 15:19 | 58.74389 | 53.22396 | 36795 ft | 496 kts | 67° |
| 2026-05-04 15:19 | 58.78061 | 53.41072 | 36797 ft | 496 kts | 68° |
| 2026-05-04 15:20 | 58.80484 | 53.53489 | 36797 ft | 495 kts | 68° |
| 2026-05-04 15:20 | 58.82904 | 53.65979 | 36796 ft | 496 kts | 68° |
| 2026-05-04 15:21 | 58.85297 | 53.78398 | 36793 ft | 496 kts | 68° |
| 2026-05-04 15:22 | 58.88201 | 53.95263 | 36786 ft | 497 kts | 70° |
| 2026-05-04 15:22 | 58.91342 | 54.14431 | 36799 ft | 497 kts | 71° |
| 2026-05-04 15:23 | 58.93401 | 54.27134 | 36776 ft | 497 kts | 71° |
| 2026-05-04 15:23 | 58.95468 | 54.40001 | 36776 ft | 498 kts | 71° |
| 2026-05-04 15:24 | 58.99534 | 54.65585 | 36773 ft | 497 kts | 71° |
| 2026-05-04 15:25 | 59.01554 | 54.78432 | 36774 ft | 498 kts | 71° |
| 2026-05-04 15:26 | 59.04554 | 54.97658 | 36777 ft | 498 kts | 72° |
| 2026-05-04 15:26 | 59.07544 | 55.17028 | 36773 ft | 498 kts | 72° |
| 2026-05-04 15:27 | 59.10495 | 55.36312 | 36770 ft | 498 kts | 72° |
| 2026-05-04 15:28 | 59.13435 | 55.55760 | 36766 ft | 498 kts | 72° |
| 2026-05-04 15:29 | 59.16332 | 55.75133 | 36760 ft | 497 kts | 72° |
| 2026-05-04 15:30 | 59.22962 | 56.20269 | 36765 ft | 495 kts | 73° |
| 2026-05-04 15:31 | 59.25761 | 56.39704 | 36765 ft | 495 kts | 73° |
| 2026-05-04 15:32 | 59.30357 | 56.72138 | 36768 ft | 496 kts | 73° |
| 2026-05-04 15:34 | 59.34870 | 57.04644 | 36770 ft | 496 kts | 74° |
| 2026-05-04 15:34 | 59.37356 | 57.24345 | 36768 ft | 496 kts | 75° |
| 2026-05-04 15:35 | 59.39744 | 57.44125 | 36769 ft | 497 kts | 76° |
| 2026-05-04 15:36 | 59.42114 | 57.63888 | 36781 ft | 497 kts | 76° |
| 2026-05-04 15:36 | 59.43664 | 57.77120 | 36781 ft | 497 kts | 76° |
| 2026-05-04 15:37 | 59.45211 | 57.90344 | 36782 ft | 497 kts | 76° |
| 2026-05-04 15:37 | 59.46741 | 58.03621 | 36778 ft | 498 kts | 76° |
| 2026-05-04 15:38 | 59.48260 | 58.16875 | 36775 ft | 498 kts | 77° |
| 2026-05-04 15:38 | 59.49756 | 58.30088 | 36774 ft | 498 kts | 77° |
| 2026-05-04 15:39 | 59.51248 | 58.43377 | 36784 ft | 497 kts | 77° |
| 2026-05-04 15:40 | 59.53466 | 58.63401 | 36784 ft | 498 kts | 77° |
| 2026-05-04 15:40 | 59.54925 | 58.76728 | 36787 ft | 498 kts | 77° |
| 2026-05-04 15:41 | 59.56373 | 58.90102 | 36780 ft | 498 kts | 77° |
| 2026-05-04 15:41 | 59.57802 | 59.03431 | 36780 ft | 498 kts | 77° |
| 2026-05-04 15:42 | 59.59226 | 59.16798 | 36783 ft | 498 kts | 77° |
| 2026-05-04 15:42 | 59.60656 | 59.30146 | 36777 ft | 498 kts | 77° |
| 2026-05-04 15:43 | 59.62062 | 59.43540 | 36767 ft | 498 kts | 77° |
| 2026-05-04 15:43 | 59.63463 | 59.56946 | 36767 ft | 498 kts | 78° |
| 2026-05-04 15:44 | 59.64846 | 59.70370 | 36761 ft | 498 kts | 78° |
| 2026-05-04 15:44 | 59.66216 | 59.83790 | 36762 ft | 498 kts | 78° |
| 2026-05-04 15:45 | 59.67565 | 59.97166 | 36762 ft | 498 kts | 78° |
| 2026-05-04 15:45 | 59.68910 | 60.10627 | 36748 ft | 498 kts | 78° |
| 2026-05-04 15:46 | 59.70244 | 60.24142 | 36747 ft | 498 kts | 78° |
| 2026-05-04 15:46 | 59.71558 | 60.37599 | 36747 ft | 498 kts | 78° |
| 2026-05-04 15:47 | 59.72854 | 60.51023 | 36743 ft | 498 kts | 78° |
| 2026-05-04 15:47 | 59.74144 | 60.64544 | 36750 ft | 498 kts | 79° |
| 2026-05-04 15:48 | 59.75417 | 60.78040 | 36744 ft | 498 kts | 79° |
| 2026-05-04 15:48 | 59.77295 | 60.98241 | 36747 ft | 498 kts | 79° |
| 2026-05-04 15:49 | 59.78532 | 61.11746 | 36745 ft | 498 kts | 79° |
| 2026-05-04 15:49 | 59.79755 | 61.25249 | 36762 ft | 498 kts | 79° |
| 2026-05-04 15:50 | 59.80963 | 61.38765 | 36746 ft | 497 kts | 79° |
| 2026-05-04 15:50 | 59.82157 | 61.52275 | 36746 ft | 497 kts | 79° |
| 2026-05-04 15:51 | 59.83341 | 61.65855 | 36747 ft | 498 kts | 79° |
| 2026-05-04 15:51 | 59.84508 | 61.79399 | 36749 ft | 498 kts | 80° |
| 2026-05-04 15:52 | 59.85660 | 61.92942 | 36755 ft | 498 kts | 80° |
| 2026-05-04 15:52 | 59.86800 | 62.06509 | 36755 ft | 498 kts | 80° |
| 2026-05-04 15:53 | 59.87927 | 62.20107 | 36755 ft | 497 kts | 80° |
| 2026-05-04 15:53 | 59.89038 | 62.33691 | 36749 ft | 497 kts | 80° |
| 2026-05-04 15:54 | 59.90139 | 62.47283 | 36745 ft | 496 kts | 80° |
| 2026-05-04 15:54 | 59.91243 | 62.60831 | 36762 ft | 496 kts | 80° |
| 2026-05-04 15:55 | 59.92322 | 62.74408 | 36763 ft | 496 kts | 81° |
| 2026-05-04 15:55 | 59.93388 | 62.87914 | 36760 ft | 496 kts | 81° |
| 2026-05-04 15:56 | 59.94440 | 63.01485 | 36764 ft | 496 kts | 81° |
| 2026-05-04 15:56 | 59.95487 | 63.15155 | 36764 ft | 496 kts | 81° |
| 2026-05-04 15:57 | 59.96511 | 63.28728 | 36770 ft | 496 kts | 81° |
| 2026-05-04 15:57 | 59.97521 | 63.42300 | 36767 ft | 495 kts | 81° |
| 2026-05-04 15:58 | 59.98518 | 63.55887 | 36772 ft | 495 kts | 81° |
| 2026-05-04 15:58 | 59.99504 | 63.69534 | 36773 ft | 495 kts | 81° |
| 2026-05-04 15:59 | 60.00472 | 63.83126 | 36778 ft | 495 kts | 81° |
| 2026-05-04 15:59 | 60.01472 | 63.96724 | 36792 ft | 494 kts | 76° |
| 2026-05-04 16:00 | 60.03085 | 64.10050 | 36773 ft | 493 kts | 75° |
| 2026-05-04 16:00 | 60.04691 | 64.23323 | 36777 ft | 493 kts | 76° |
| 2026-05-04 16:01 | 60.06277 | 64.36733 | 36778 ft | 493 kts | 76° |
| 2026-05-04 16:01 | 60.07853 | 64.50009 | 36778 ft | 493 kts | 76° |
| 2026-05-04 16:02 | 60.09412 | 64.63410 | 36779 ft | 493 kts | 76° |
| 2026-05-04 16:03 | 60.11505 | 64.83432 | 36786 ft | 492 kts | 87° |
| 2026-05-04 16:03 | 60.11107 | 64.97132 | 36790 ft | 492 kts | 95° |
| 2026-05-04 16:04 | 60.10482 | 65.10812 | 36793 ft | 492 kts | 95° |
| 2026-05-04 16:04 | 60.09563 | 65.31235 | 36791 ft | 492 kts | 95° |
| 2026-05-04 16:05 | 60.08927 | 65.44865 | 36790 ft | 491 kts | 95° |
| 2026-05-04 16:06 | 60.07943 | 65.65340 | 36794 ft | 491 kts | 96° |
| 2026-05-04 16:07 | 60.06586 | 65.92568 | 36802 ft | 491 kts | 96° |
| 2026-05-04 16:08 | 60.05177 | 66.19711 | 36799 ft | 490 kts | 96° |
| 2026-05-04 16:09 | 60.03341 | 66.53501 | 36804 ft | 490 kts | 96° |
| 2026-05-04 16:10 | 60.01799 | 66.80575 | 36804 ft | 490 kts | 97° |
| 2026-05-04 16:11 | 60.00202 | 67.07523 | 36808 ft | 489 kts | 97° |
| 2026-05-04 16:12 | 59.97701 | 67.47945 | 36803 ft | 491 kts | 97° |
| 2026-05-04 16:13 | 59.95959 | 67.74954 | 36807 ft | 491 kts | 98° |
| 2026-05-04 16:14 | 59.94161 | 68.01938 | 36812 ft | 491 kts | 98° |
| 2026-05-04 16:16 | 59.91837 | 68.35614 | 36814 ft | 490 kts | 98° |
| 2026-05-04 16:17 | 59.89421 | 68.69180 | 36810 ft | 489 kts | 99° |
| 2026-05-04 16:18 | 59.87444 | 68.95747 | 36811 ft | 485 kts | 99° |
| 2026-05-04 16:19 | 59.84894 | 69.28968 | 36813 ft | 485 kts | 100° |
| 2026-05-04 16:20 | 59.82268 | 69.62045 | 36819 ft | 486 kts | 100° |
| 2026-05-04 16:22 | 59.79566 | 69.95131 | 36824 ft | 485 kts | 100° |
| 2026-05-04 16:23 | 59.76400 | 70.32604 | 36824 ft | 486 kts | 101° |
| 2026-05-04 16:25 | 59.72928 | 70.72243 | 36835 ft | 486 kts | 101° |
| 2026-05-04 16:26 | 59.68728 | 71.18366 | 36820 ft | 486 kts | 102° |
| 2026-05-04 16:28 | 59.65630 | 71.51226 | 36845 ft | 487 kts | 102° |
| 2026-05-04 16:29 | 59.61150 | 71.97181 | 36855 ft | 487 kts | 102° |
| 2026-05-04 16:31 | 59.57852 | 72.29937 | 36855 ft | 487 kts | 103° |
| 2026-05-04 16:32 | 59.53781 | 72.69201 | 36859 ft | 488 kts | 103° |
| 2026-05-04 16:33 | 59.50999 | 72.95346 | 36874 ft | 488 kts | 103° |
| 2026-05-04 16:34 | 59.48876 | 73.14958 | 36867 ft | 488 kts | 103° |
| 2026-05-04 16:35 | 59.44542 | 73.54089 | 36876 ft | 488 kts | 104° |
| 2026-05-04 16:36 | 59.42339 | 73.73557 | 36875 ft | 488 kts | 104° |
| 2026-05-04 16:37 | 59.40100 | 73.93055 | 36883 ft | 488 kts | 104° |
| 2026-05-04 16:38 | 59.37070 | 74.19010 | 36883 ft | 488 kts | 104° |
| 2026-05-04 16:39 | 59.33236 | 74.51404 | 36896 ft | 488 kts | 102° |
| 2026-05-04 16:40 | 59.30510 | 74.77374 | 36902 ft | 488 kts | 102° |
| 2026-05-04 16:41 | 59.27037 | 75.09878 | 36904 ft | 488 kts | 103° |
| 2026-05-04 16:43 | 59.23469 | 75.42356 | 36912 ft | 488 kts | 103° |
| 2026-05-04 16:43 | 59.21303 | 75.61693 | 36917 ft | 488 kts | 103° |
| 2026-05-04 16:45 | 59.16868 | 76.00404 | 36928 ft | 486 kts | 103° |
| 2026-05-04 16:46 | 59.13086 | 76.32472 | 36928 ft | 487 kts | 104° |
| 2026-05-04 16:47 | 59.09994 | 76.58205 | 36933 ft | 487 kts | 104° |
| 2026-05-04 16:48 | 59.06880 | 76.83791 | 36939 ft | 488 kts | 104° |
| 2026-05-04 16:49 | 59.03704 | 77.09403 | 36943 ft | 487 kts | 104° |
| 2026-05-04 16:50 | 59.00468 | 77.35040 | 36951 ft | 489 kts | 105° |
| 2026-05-04 16:51 | 58.98017 | 77.54163 | 36971 ft | 490 kts | 105° |
| 2026-05-04 16:52 | 58.94684 | 77.79787 | 36964 ft | 490 kts | 105° |
| 2026-05-04 16:53 | 58.92157 | 77.98920 | 36980 ft | 486 kts | 105° |
| 2026-05-04 16:54 | 58.88763 | 78.24252 | 36976 ft | 486 kts | 105° |
| 2026-05-04 16:55 | 58.83585 | 78.62105 | 36995 ft | 485 kts | 105° |
| 2026-05-04 16:56 | 58.79199 | 78.93480 | 37001 ft | 485 kts | 106° |
| 2026-05-04 16:57 | 58.76533 | 79.12242 | 37006 ft | 485 kts | 106° |
| 2026-05-04 16:58 | 58.72925 | 79.37301 | 37013 ft | 485 kts | 106° |
| 2026-05-04 17:00 | 58.67729 | 79.74856 | 37019 ft | 486 kts | 101° |
| 2026-05-04 17:01 | 58.64628 | 80.06727 | 37006 ft | 486 kts | 101° |
| 2026-05-04 17:02 | 58.62073 | 80.32207 | 37015 ft | 486 kts | 101° |
| 2026-05-04 17:03 | 58.60125 | 80.51278 | 37026 ft | 486 kts | 101° |
| 2026-05-04 17:03 | 58.58150 | 80.70311 | 37018 ft | 486 kts | 101° |
| 2026-05-04 17:04 | 58.55472 | 80.95649 | 37025 ft | 486 kts | 101° |
| 2026-05-04 17:05 | 58.52737 | 81.21022 | 37044 ft | 486 kts | 101° |
| 2026-05-04 17:06 | 58.50660 | 81.39962 | 37034 ft | 486 kts | 101° |
| 2026-05-04 17:07 | 58.48784 | 81.56838 | 37040 ft | 486 kts | 101° |
| 2026-05-04 17:07 | 58.47125 | 81.71578 | 37033 ft | 486 kts | 101° |
| 2026-05-04 17:08 | 58.44965 | 81.90527 | 37047 ft | 486 kts | 101° |
| 2026-05-04 17:09 | 58.43516 | 82.03095 | 37046 ft | 486 kts | 101° |
| 2026-05-04 17:09 | 58.42047 | 82.15716 | 37045 ft | 486 kts | 101° |
| 2026-05-04 17:10 | 58.38335 | 82.47099 | 37047 ft | 486 kts | 101° |
| 2026-05-04 17:11 | 58.36832 | 82.59603 | 37062 ft | 486 kts | 101° |
| 2026-05-04 17:12 | 58.34546 | 82.78428 | 37059 ft | 486 kts | 101° |
| 2026-05-04 17:13 | 58.29190 | 83.08905 | 37066 ft | 489 kts | 112° |
| 2026-05-04 17:14 | 58.24291 | 83.30627 | 37061 ft | 488 kts | 112° |
| 2026-05-04 17:15 | 58.20239 | 83.48361 | 37061 ft | 488 kts | 112° |
| 2026-05-04 17:16 | 58.14792 | 83.71944 | 37067 ft | 488 kts | 112° |
| 2026-05-04 17:17 | 58.09302 | 83.95464 | 37078 ft | 489 kts | 112° |
| 2026-05-04 17:18 | 58.03783 | 84.18849 | 37060 ft | 488 kts | 112° |
| 2026-05-04 17:19 | 57.98210 | 84.42216 | 37071 ft | 488 kts | 112° |
| 2026-05-04 17:20 | 57.92587 | 84.65538 | 37081 ft | 489 kts | 112° |
| 2026-05-04 17:20 | 57.88333 | 84.83019 | 37082 ft | 489 kts | 112° |
| 2026-05-04 17:21 | 57.82645 | 85.06174 | 37071 ft | 489 kts | 112° |
| 2026-05-04 17:22 | 57.79781 | 85.17739 | 37082 ft | 490 kts | 112° |
| 2026-05-04 17:23 | 57.74007 | 85.40879 | 37088 ft | 490 kts | 112° |
| 2026-05-04 17:24 | 57.69649 | 85.58184 | 37094 ft | 490 kts | 112° |
| 2026-05-04 17:25 | 57.63819 | 85.81120 | 37090 ft | 491 kts | 112° |
| 2026-05-04 17:26 | 57.57912 | 86.04125 | 37092 ft | 491 kts | 113° |
| 2026-05-04 17:27 | 57.50473 | 86.32761 | 37100 ft | 491 kts | 113° |
| 2026-05-04 17:28 | 57.44478 | 86.55576 | 37109 ft | 493 kts | 113° |
| 2026-05-04 17:29 | 57.35370 | 86.89801 | 37118 ft | 493 kts | 113° |
| 2026-05-04 17:31 | 57.27694 | 87.18249 | 37119 ft | 495 kts | 114° |
| 2026-05-04 17:32 | 57.19965 | 87.46540 | 37130 ft | 495 kts | 114° |
| 2026-05-04 17:33 | 57.13711 | 87.69177 | 37133 ft | 497 kts | 114° |
| 2026-05-04 17:34 | 57.07394 | 87.91815 | 37138 ft | 497 kts | 114° |
| 2026-05-04 17:35 | 56.99448 | 88.19981 | 37143 ft | 497 kts | 114° |
| 2026-05-04 17:36 | 56.96260 | 88.31185 | 37139 ft | 499 kts | 115° |
| 2026-05-04 17:36 | 56.93030 | 88.42479 | 37149 ft | 499 kts | 115° |
| 2026-05-04 17:37 | 56.90083 | 88.53865 | 37142 ft | 496 kts | 109° |
| 2026-05-04 17:37 | 56.87474 | 88.65522 | 37149 ft | 496 kts | 109° |
| 2026-05-04 17:38 | 56.84837 | 88.77197 | 37151 ft | 496 kts | 109° |
| 2026-05-04 17:38 | 56.82202 | 88.88824 | 37151 ft | 496 kts | 109° |
| 2026-05-04 17:39 | 56.78209 | 89.06304 | 37150 ft | 497 kts | 109° |
| 2026-05-04 17:39 | 56.75536 | 89.17932 | 37148 ft | 497 kts | 109° |
| 2026-05-04 17:40 | 56.72873 | 89.29448 | 37153 ft | 496 kts | 109° |
| 2026-05-04 17:40 | 56.70175 | 89.41060 | 37154 ft | 496 kts | 110° |
| 2026-05-04 17:41 | 56.67468 | 89.52641 | 37154 ft | 496 kts | 110° |
| 2026-05-04 17:41 | 56.64777 | 89.64093 | 37158 ft | 496 kts | 110° |
| 2026-05-04 17:42 | 56.62054 | 89.75620 | 37163 ft | 496 kts | 110° |
| 2026-05-04 17:42 | 56.59312 | 89.87169 | 37161 ft | 496 kts | 110° |
| 2026-05-04 17:43 | 56.56570 | 89.98651 | 37171 ft | 496 kts | 110° |
| 2026-05-04 17:43 | 56.53810 | 90.10151 | 37050 ft | 499 kts | 110° |
| 2026-05-04 17:44 | 56.52435 | 90.15856 | 36482 ft | 502 kts | 110° |
| 2026-05-04 17:44 | 56.51029 | 90.21671 | 35833 ft | 503 kts | 110° |
| 2026-05-04 17:44 | 56.49625 | 90.27466 | 35159 ft | 502 kts | 109° |
| 2026-05-04 17:44 | 56.48216 | 90.33264 | 34485 ft | 502 kts | 109° |
| 2026-05-04 17:45 | 56.46807 | 90.39056 | 33743 ft | 502 kts | 108° |
| 2026-05-04 17:45 | 56.45403 | 90.44802 | 33079 ft | 498 kts | 108° |
| 2026-05-04 17:45 | 56.44004 | 90.50512 | 32403 ft | 495 kts | 108° |
| 2026-05-04 17:45 | 56.42611 | 90.56188 | 31736 ft | 493 kts | 108° |
| 2026-05-04 17:46 | 56.41221 | 90.61836 | 31066 ft | 492 kts | 108° |
| 2026-05-04 17:46 | 56.39833 | 90.67463 | 30392 ft | 490 kts | 107° |
| 2026-05-04 17:46 | 56.38464 | 90.72998 | 29685 ft | 487 kts | 107° |
| 2026-05-04 17:46 | 56.37088 | 90.78544 | 29018 ft | 482 kts | 107° |
| 2026-05-04 17:47 | 56.35724 | 90.84031 | 28356 ft | 477 kts | 107° |
| 2026-05-04 17:47 | 56.34371 | 90.89461 | 27690 ft | 473 kts | 107° |
| 2026-05-04 17:47 | 56.33025 | 90.94848 | 27052 ft | 468 kts | 108° |
| 2026-05-04 17:47 | 56.31684 | 91.00201 | 26405 ft | 464 kts | 108° |
| 2026-05-04 17:48 | 56.30369 | 91.05443 | 25753 ft | 460 kts | 108° |
| 2026-05-04 17:48 | 56.29056 | 91.10700 | 25124 ft | 455 kts | 105° |
| 2026-05-04 17:48 | 56.28175 | 91.16002 | 24401 ft | 443 kts | 93° |
| 2026-05-04 17:48 | 56.27729 | 91.21468 | 23737 ft | 437 kts | 90° |
| 2026-05-04 17:49 | 56.27305 | 91.26839 | 23116 ft | 430 kts | 91° |
| 2026-05-04 17:49 | 56.26865 | 91.32126 | 22556 ft | 423 kts | 91° |
| 2026-05-04 17:49 | 56.26432 | 91.37318 | 21994 ft | 416 kts | 91° |
| 2026-05-04 17:49 | 56.26015 | 91.42419 | 21450 ft | 410 kts | 91° |
| 2026-05-04 17:50 | 56.25601 | 91.47470 | 20907 ft | 405 kts | 91° |
| 2026-05-04 17:50 | 56.25187 | 91.52412 | 20397 ft | 393 kts | 91° |
| 2026-05-04 17:50 | 56.24781 | 91.57195 | 19883 ft | 381 kts | 91° |
| 2026-05-04 17:50 | 56.24392 | 91.61838 | 19389 ft | 370 kts | 91° |
| 2026-05-04 17:51 | 56.24025 | 91.66375 | 18910 ft | 364 kts | 87° |
| 2026-05-04 17:51 | 56.24066 | 91.70840 | 18430 ft | 350 kts | 73° |
| 2026-05-04 17:51 | 56.24508 | 91.75013 | 17967 ft | 340 kts | 70° |
| 2026-05-04 17:51 | 56.24991 | 91.79213 | 17513 ft | 342 kts | 70° |
| 2026-05-04 17:52 | 56.25463 | 91.83376 | 16920 ft | 338 kts | 70° |
| 2026-05-04 17:52 | 56.25925 | 91.87492 | 16305 ft | 334 kts | 70° |
| 2026-05-04 17:52 | 56.26383 | 91.91563 | 15690 ft | 330 kts | 70° |
| 2026-05-04 17:52 | 56.26837 | 91.95588 | 15091 ft | 327 kts | 70° |
| 2026-05-04 17:53 | 56.27284 | 91.99575 | 14504 ft | 323 kts | 70° |
| 2026-05-04 17:53 | 56.27724 | 92.03524 | 13908 ft | 320 kts | 71° |
| 2026-05-04 17:53 | 56.28160 | 92.07439 | 13274 ft | 318 kts | 71° |
| 2026-05-04 17:53 | 56.28592 | 92.11321 | 12642 ft | 315 kts | 71° |
| 2026-05-04 17:54 | 56.29018 | 92.15174 | 12044 ft | 313 kts | 72° |
| 2026-05-04 17:54 | 56.29402 | 92.19031 | 11515 ft | 317 kts | 79° |
| 2026-05-04 17:54 | 56.29295 | 92.23012 | 11226 ft | 318 kts | 90° |
| 2026-05-04 17:54 | 56.29046 | 92.26915 | 11060 ft | 310 kts | 91° |
| 2026-05-04 17:55 | 56.28795 | 92.30730 | 10860 ft | 304 kts | 91° |
| 2026-05-04 17:55 | 56.28559 | 92.34446 | 10610 ft | 301 kts | 91° |
| 2026-05-04 17:55 | 56.28333 | 92.38048 | 10346 ft | 298 kts | 91° |
| 2026-05-04 17:55 | 56.28096 | 92.41755 | 10076 ft | 297 kts | 92° |
| 2026-05-04 17:56 | 56.27858 | 92.45435 | 9800 ft | 295 kts | 92° |
| 2026-05-04 17:56 | 56.27621 | 92.49089 | 9508 ft | 293 kts | 92° |
| 2026-05-04 17:56 | 56.27385 | 92.52726 | 9219 ft | 292 kts | 92° |
| 2026-05-04 17:56 | 56.27149 | 92.56347 | 8931 ft | 290 kts | 92° |
| 2026-05-04 17:57 | 56.26913 | 92.59944 | 8701 ft | 287 kts | 92° |
| 2026-05-04 17:57 | 56.26681 | 92.63458 | 8389 ft | 286 kts | 92° |
| 2026-05-04 17:57 | 56.26424 | 92.67029 | 7887 ft | 284 kts | 99° |
| 2026-05-04 17:57 | 56.25734 | 92.70342 | 7363 ft | 284 kts | 110° |
| 2026-05-04 17:58 | 56.24959 | 92.73564 | 6892 ft | 281 kts | 111° |
| 2026-05-04 17:58 | 56.24180 | 92.76779 | 6366 ft | 278 kts | 111° |
| 2026-05-04 17:58 | 56.23434 | 92.79883 | 5381 ft | 272 kts | 113° |
| 2026-05-04 17:58 | 56.22346 | 92.82507 | 4543 ft | 258 kts | 144° |
| 2026-05-04 17:59 | 56.20674 | 92.83787 | 4334 ft | 258 kts | 172° |
| 2026-05-04 17:59 | 56.18966 | 92.83606 | 3681 ft | 240 kts | 204° |
| 2026-05-04 17:59 | 56.16399 | 92.80953 | 3381 ft | 193 kts | 211° |
| 2026-05-04 18:00 | 56.15212 | 92.79975 | 3233 ft | 180 kts | 207° |
| 2026-05-04 18:00 | 56.14119 | 92.79158 | 3071 ft | 164 kts | 207° |
| 2026-05-04 18:00 | 56.13079 | 92.78364 | 3011 ft | 160 kts | 208° |
| 2026-05-04 18:00 | 56.12081 | 92.77547 | 3005 ft | 147 kts | 214° |
| 2026-05-04 18:01 | 56.11507 | 92.76270 | 3028 ft | 130 kts | 248° |
| 2026-05-04 18:01 | 56.11355 | 92.74705 | 2916 ft | 125 kts | 285° |
| 2026-05-04 18:01 | 56.11667 | 92.73294 | 2953 ft | 126 kts | 284° |
| 2026-05-04 18:02 | 56.12305 | 92.70408 | 3022 ft | 124 kts | 295° |
| 2026-05-04 18:02 | 56.12640 | 92.68982 | 3033 ft | 125 kts | 291° |
| 2026-05-04 18:02 | 56.12864 | 92.68028 | 2962 ft | 125 kts | 294° |
| 2026-05-04 18:02 | 56.13186 | 92.66666 | 2812 ft | 124 kts | 292° |
| 2026-05-04 18:03 | 56.13525 | 92.65244 | 2629 ft | 124 kts | 292° |
| 2026-05-04 18:03 | 56.13975 | 92.63347 | 2420 ft | 124 kts | 292° |
| 2026-05-04 18:03 | 56.14203 | 92.62384 | 2294 ft | 125 kts | 292° |
| 2026-05-04 18:03 | 56.14656 | 92.60475 | 2063 ft | 125 kts | 292° |
| 2026-05-04 18:04 | 56.14888 | 92.59502 | 1918 ft | 125 kts | 292° |
| 2026-05-04 18:04 | 56.15236 | 92.58065 | 1757 ft | 128 kts | 292° |
| 2026-05-04 18:04 | 56.15937 | 92.55081 | 1376 ft | 131 kts | 292° |
| 2026-05-04 18:05 | 56.16288 | 92.53558 | 1194 ft | 132 kts | 292° |
| 2026-05-04 18:05 | 56.16646 | 92.52039 | 1020 ft | 132 kts | 293° |
| 2026-05-04 18:05 | 56.16996 | 92.50575 | 959 ft | 124 kts | 293° |
| 2026-05-04 18:05 | 56.17252 | 92.49494 | 958 ft | 66 kts | 293° |
| 2026-05-04 18:06 | 56.17578 | 92.48123 | 960 ft | 54 kts | 292° |
| 2026-05-04 18:06 | 56.17721 | 92.47519 | 956 ft | 51 kts | 293° |
| 2026-05-04 18:06 | 56.17852 | 92.46972 | 958 ft | 42 kts | 293° |
| 2026-05-04 18:07 | 56.17937 | 92.46654 | 957 ft | 7 kts | 319° |
| 2026-05-04 18:07 | 56.17975 | 92.46636 | 956 ft | 7 kts | 1° |
| 2026-05-04 18:07 | 56.18028 | 92.46669 | 958 ft | 10 kts | 25° |
| 2026-05-04 18:07 | 56.18096 | 92.46724 | 958 ft | 12 kts | 24° |
| 2026-05-04 18:08 | 56.18157 | 92.46772 | 957 ft | 10 kts | 23° |
| 2026-05-04 18:08 | 56.18223 | 92.46823 | 956 ft | 3 kts | 23° |
| 2026-05-04 18:08 | 56.18246 | 92.46837 | 958 ft | 4 kts | 12° |
| 2026-05-04 18:08 | 56.18280 | 92.46824 | 958 ft | 6 kts | 332° |
| 2026-05-04 18:09 | 56.18332 | 92.46736 | 956 ft | 5 kts | 338° |
| 2026-05-04 18:09 | 56.18366 | 92.46749 | 959 ft | 6 kts | 27° |
| 2026-05-04 18:10 | 56.18385 | 92.46765 | 958 ft | 0 kts | 26° |